sensor_id;sensor_type;location;lat;lon;timestamp;P1;durP1;ratioP1;P2;durP2;ratioP2
36593;SDS011;22603;47.900;8.146;2023-11-19T00:00:02;0.90;;;0.60;;
36593;SDS011;22603;47.900;8.146;2023-11-19T00:02:55;0.20;;;0.20;;
36593;SDS011;22603;47.900;8.146;2023-11-19T00:05:43;0.40;;;0.40;;
36593;SDS011;22603;47.900;8.146;2023-11-19T00:08:30;1.10;;;0.77;;
36593;SDS011;22603;47.900;8.146;2023-11-19T00:11:17;1.30;;;0.50;;
36593;SDS011;22603;47.900;8.146;2023-11-19T00:14:04;0.57;;;0.50;;
36593;SDS011;22603;47.900;8.146;2023-11-19T00:16:53;0.33;;;0.33;;
36593;SDS011;22603;47.900;8.146;2023-11-19T00:19:40;0.90;;;0.50;;
36593;SDS011;22603;47.900;8.146;2023-11-19T00:22:28;0.90;;;0.50;;
36593;SDS011;22603;47.900;8.146;2023-11-19T00:25:14;0.70;;;0.60;;
36593;SDS011;22603;47.900;8.146;2023-11-19T00:28:01;0.50;;;0.50;;
36593;SDS011;22603;47.900;8.146;2023-11-19T00:30:48;0.80;;;0.57;;
36593;SDS011;22603;47.900;8.146;2023-11-19T00:33:35;0.80;;;0.50;;
36593;SDS011;22603;47.900;8.146;2023-11-19T00:36:34;0.57;;;0.50;;
36593;SDS011;22603;47.900;8.146;2023-11-19T00:39:22;0.97;;;0.60;;
36593;SDS011;22603;47.900;8.146;2023-11-19T00:42:09;2.53;;;0.50;;
36593;SDS011;22603;47.900;8.146;2023-11-19T00:44:56;1.37;;;0.67;;
36593;SDS011;22603;47.900;8.146;2023-11-19T00:47:42;0.33;;;0.33;;
36593;SDS011;22603;47.900;8.146;2023-11-19T00:50:29;1.33;;;0.67;;
36593;SDS011;22603;47.900;8.146;2023-11-19T00:53:20;0.90;;;0.60;;
36593;SDS011;22603;47.900;8.146;2023-11-19T00:56:10;1.90;;;0.90;;
36593;SDS011;22603;47.900;8.146;2023-11-19T00:58:57;0.53;;;0.53;;
36593;SDS011;22603;47.900;8.146;2023-11-19T01:01:44;2.43;;;0.70;;
36593;SDS011;22603;47.900;8.146;2023-11-19T01:04:35;2.37;;;0.77;;
36593;SDS011;22603;47.900;8.146;2023-11-19T01:07:23;0.80;;;0.50;;
36593;SDS011;22603;47.900;8.146;2023-11-19T01:10:11;0.27;;;0.27;;
36593;SDS011;22603;47.900;8.146;2023-11-19T01:12:59;0.40;;;0.40;;
36593;SDS011;22603;47.900;8.146;2023-11-19T01:15:46;1.03;;;0.60;;
36593;SDS011;22603;47.900;8.146;2023-11-19T01:18:33;1.47;;;0.50;;
36593;SDS011;22603;47.900;8.146;2023-11-19T01:21:20;2.10;;;0.63;;
36593;SDS011;22603;47.900;8.146;2023-11-19T01:24:07;0.33;;;0.33;;
36593;SDS011;22603;47.900;8.146;2023-11-19T01:26:55;0.50;;;0.30;;
36593;SDS011;22603;47.900;8.146;2023-11-19T01:29:44;0.60;;;0.50;;
36593;SDS011;22603;47.900;8.146;2023-11-19T01:32:31;0.30;;;0.30;;
36593;SDS011;22603;47.900;8.146;2023-11-19T01:35:18;1.17;;;0.40;;
36593;SDS011;22603;47.900;8.146;2023-11-19T01:38:04;0.40;;;0.40;;
36593;SDS011;22603;47.900;8.146;2023-11-19T01:40:55;0.70;;;0.40;;
36593;SDS011;22603;47.900;8.146;2023-11-19T01:43:42;1.80;;;0.97;;
36593;SDS011;22603;47.900;8.146;2023-11-19T01:46:33;0.37;;;0.37;;
36593;SDS011;22603;47.900;8.146;2023-11-19T01:49:22;0.57;;;0.50;;
36593;SDS011;22603;47.900;8.146;2023-11-19T01:52:08;1.00;;;0.53;;
36593;SDS011;22603;47.900;8.146;2023-11-19T01:54:55;0.43;;;0.37;;
36593;SDS011;22603;47.900;8.146;2023-11-19T01:57:43;0.50;;;0.50;;
36593;SDS011;22603;47.900;8.146;2023-11-19T02:00:30;1.80;;;0.47;;
36593;SDS011;22603;47.900;8.146;2023-11-19T02:03:20;0.43;;;0.43;;
36593;SDS011;22603;47.900;8.146;2023-11-19T02:06:10;0.63;;;0.40;;
36593;SDS011;22603;47.900;8.146;2023-11-19T02:08:56;0.40;;;0.40;;
36593;SDS011;22603;47.900;8.146;2023-11-19T02:11:43;0.97;;;0.90;;
36593;SDS011;22603;47.900;8.146;2023-11-19T02:14:30;0.30;;;0.30;;
36593;SDS011;22603;47.900;8.146;2023-11-19T02:17:27;0.33;;;0.33;;
36593;SDS011;22603;47.900;8.146;2023-11-19T02:20:15;0.30;;;0.30;;
36593;SDS011;22603;47.900;8.146;2023-11-19T02:23:04;0.20;;;0.20;;
36593;SDS011;22603;47.900;8.146;2023-11-19T02:25:55;0.20;;;0.20;;
36593;SDS011;22603;47.900;8.146;2023-11-19T02:28:49;0.30;;;0.30;;
36593;SDS011;22603;47.900;8.146;2023-11-19T02:31:36;0.73;;;0.40;;
36593;SDS011;22603;47.900;8.146;2023-11-19T02:34:23;0.20;;;0.20;;
36593;SDS011;22603;47.900;8.146;2023-11-19T02:37:10;0.40;;;0.30;;
36593;SDS011;22603;47.900;8.146;2023-11-19T02:39:57;0.30;;;0.30;;
36593;SDS011;22603;47.900;8.146;2023-11-19T02:42:48;0.77;;;0.20;;
36593;SDS011;22603;47.900;8.146;2023-11-19T02:45:36;0.40;;;0.40;;
36593;SDS011;22603;47.900;8.146;2023-11-19T02:48:22;0.20;;;0.20;;
36593;SDS011;22603;47.900;8.146;2023-11-19T02:51:09;0.47;;;0.30;;
36593;SDS011;22603;47.900;8.146;2023-11-19T02:53:56;0.20;;;0.20;;
36593;SDS011;22603;47.900;8.146;2023-11-19T02:56:43;0.20;;;0.20;;
36593;SDS011;22603;47.900;8.146;2023-11-19T02:59:32;0.30;;;0.30;;
36593;SDS011;22603;47.900;8.146;2023-11-19T03:02:25;0.20;;;0.20;;
36593;SDS011;22603;47.900;8.146;2023-11-19T03:05:19;0.73;;;0.40;;
36593;SDS011;22603;47.900;8.146;2023-11-19T03:08:06;0.20;;;0.20;;
36593;SDS011;22603;47.900;8.146;2023-11-19T03:10:53;0.93;;;0.30;;
36593;SDS011;22603;47.900;8.146;2023-11-19T03:13:40;0.23;;;0.23;;
36593;SDS011;22603;47.900;8.146;2023-11-19T03:16:26;0.20;;;0.20;;
36593;SDS011;22603;47.900;8.146;2023-11-19T03:19:14;0.20;;;0.20;;
36593;SDS011;22603;47.900;8.146;2023-11-19T03:22:09;0.20;;;0.20;;
36593;SDS011;22603;47.900;8.146;2023-11-19T03:24:56;0.20;;;0.20;;
36593;SDS011;22603;47.900;8.146;2023-11-19T03:27:43;0.20;;;0.20;;
36593;SDS011;22603;47.900;8.146;2023-11-19T03:30:30;0.30;;;0.30;;
36593;SDS011;22603;47.900;8.146;2023-11-19T03:33:19;0.20;;;0.20;;
36593;SDS011;22603;47.900;8.146;2023-11-19T03:36:08;0.20;;;0.20;;
36593;SDS011;22603;47.900;8.146;2023-11-19T03:38:55;0.20;;;0.20;;
36593;SDS011;22603;47.900;8.146;2023-11-19T03:41:41;0.20;;;0.20;;
36593;SDS011;22603;47.900;8.146;2023-11-19T03:44:31;0.20;;;0.20;;
36593;SDS011;22603;47.900;8.146;2023-11-19T03:47:18;0.20;;;0.20;;
36593;SDS011;22603;47.900;8.146;2023-11-19T03:50:05;0.20;;;0.20;;
36593;SDS011;22603;47.900;8.146;2023-11-19T03:52:55;0.20;;;0.20;;
36593;SDS011;22603;47.900;8.146;2023-11-19T03:55:41;0.20;;;0.20;;
36593;SDS011;22603;47.900;8.146;2023-11-19T03:58:28;0.30;;;0.30;;
36593;SDS011;22603;47.900;8.146;2023-11-19T04:01:15;0.20;;;0.20;;
36593;SDS011;22603;47.900;8.146;2023-11-19T04:04:02;0.30;;;0.30;;
36593;SDS011;22603;47.900;8.146;2023-11-19T04:06:49;0.20;;;0.20;;
36593;SDS011;22603;47.900;8.146;2023-11-19T04:09:37;0.30;;;0.30;;
36593;SDS011;22603;47.900;8.146;2023-11-19T04:12:24;0.30;;;0.30;;
36593;SDS011;22603;47.900;8.146;2023-11-19T04:15:11;1.70;;;0.30;;
36593;SDS011;22603;47.900;8.146;2023-11-19T04:17:58;0.30;;;0.30;;
36593;SDS011;22603;47.900;8.146;2023-11-19T04:20:46;0.20;;;0.20;;
36593;SDS011;22603;47.900;8.146;2023-11-19T04:23:32;0.30;;;0.30;;
36593;SDS011;22603;47.900;8.146;2023-11-19T04:26:21;0.27;;;0.27;;
36593;SDS011;22603;47.900;8.146;2023-11-19T04:29:07;0.23;;;0.23;;
36593;SDS011;22603;47.900;8.146;2023-11-19T04:31:56;0.20;;;0.20;;
36593;SDS011;22603;47.900;8.146;2023-11-19T04:34:42;0.20;;;0.20;;
36593;SDS011;22603;47.900;8.146;2023-11-19T04:37:29;0.83;;;0.33;;
36593;SDS011;22603;47.900;8.146;2023-11-19T04:40:16;0.53;;;0.33;;
36593;SDS011;22603;47.900;8.146;2023-11-19T04:43:05;0.20;;;0.20;;
36593;SDS011;22603;47.900;8.146;2023-11-19T04:45:52;0.30;;;0.30;;
36593;SDS011;22603;47.900;8.146;2023-11-19T04:48:39;0.53;;;0.30;;
36593;SDS011;22603;47.900;8.146;2023-11-19T04:51:26;1.40;;;0.40;;
36593;SDS011;22603;47.900;8.146;2023-11-19T04:54:14;0.30;;;0.30;;
36593;SDS011;22603;47.900;8.146;2023-11-19T04:57:00;0.30;;;0.30;;
36593;SDS011;22603;47.900;8.146;2023-11-19T04:59:49;0.30;;;0.30;;
36593;SDS011;22603;47.900;8.146;2023-11-19T05:02:36;0.13;;;0.13;;
36593;SDS011;22603;47.900;8.146;2023-11-19T05:05:23;0.20;;;0.20;;
36593;SDS011;22603;47.900;8.146;2023-11-19T05:08:10;0.20;;;0.20;;
36593;SDS011;22603;47.900;8.146;2023-11-19T05:10:57;0.20;;;0.20;;
36593;SDS011;22603;47.900;8.146;2023-11-19T05:13:44;0.20;;;0.20;;
36593;SDS011;22603;47.900;8.146;2023-11-19T05:16:32;0.30;;;0.30;;
36593;SDS011;22603;47.900;8.146;2023-11-19T05:19:20;0.20;;;0.20;;
36593;SDS011;22603;47.900;8.146;2023-11-19T05:22:07;0.30;;;0.30;;
36593;SDS011;22603;47.900;8.146;2023-11-19T05:24:53;0.30;;;0.30;;
36593;SDS011;22603;47.900;8.146;2023-11-19T05:27:40;0.30;;;0.30;;
36593;SDS011;22603;47.900;8.146;2023-11-19T05:30:27;0.73;;;0.40;;
36593;SDS011;22603;47.900;8.146;2023-11-19T05:33:15;0.23;;;0.23;;
36593;SDS011;22603;47.900;8.146;2023-11-19T05:36:02;0.33;;;0.30;;
36593;SDS011;22603;47.900;8.146;2023-11-19T05:38:49;0.30;;;0.30;;
36593;SDS011;22603;47.900;8.146;2023-11-19T05:41:36;0.20;;;0.20;;
36593;SDS011;22603;47.900;8.146;2023-11-19T05:44:22;0.30;;;0.30;;
36593;SDS011;22603;47.900;8.146;2023-11-19T05:47:09;0.87;;;0.20;;
36593;SDS011;22603;47.900;8.146;2023-11-19T05:49:57;0.20;;;0.20;;
36593;SDS011;22603;47.900;8.146;2023-11-19T05:52:44;0.23;;;0.23;;
36593;SDS011;22603;47.900;8.146;2023-11-19T05:55:33;0.20;;;0.20;;
36593;SDS011;22603;47.900;8.146;2023-11-19T05:58:22;0.27;;;0.27;;
36593;SDS011;22603;47.900;8.146;2023-11-19T06:01:13;0.30;;;0.30;;
36593;SDS011;22603;47.900;8.146;2023-11-19T06:04:00;0.73;;;0.43;;
36593;SDS011;22603;47.900;8.146;2023-11-19T06:06:49;0.33;;;0.23;;
36593;SDS011;22603;47.900;8.146;2023-11-19T06:09:35;0.20;;;0.20;;
36593;SDS011;22603;47.900;8.146;2023-11-19T06:12:22;0.20;;;0.20;;
36593;SDS011;22603;47.900;8.146;2023-11-19T06:15:09;0.20;;;0.20;;
36593;SDS011;22603;47.900;8.146;2023-11-19T06:17:57;0.30;;;0.30;;
36593;SDS011;22603;47.900;8.146;2023-11-19T06:20:46;0.30;;;0.30;;
36593;SDS011;22603;47.900;8.146;2023-11-19T06:23:34;0.80;;;0.40;;
36593;SDS011;22603;47.900;8.146;2023-11-19T06:26:21;0.30;;;0.30;;
36593;SDS011;22603;47.900;8.146;2023-11-19T06:29:08;0.30;;;0.30;;
36593;SDS011;22603;47.900;8.146;2023-11-19T06:31:55;2.93;;;0.30;;
36593;SDS011;22603;47.900;8.146;2023-11-19T06:34:42;0.30;;;0.30;;
36593;SDS011;22603;47.900;8.146;2023-11-19T06:37:29;0.30;;;0.30;;
36593;SDS011;22603;47.900;8.146;2023-11-19T06:40:17;0.30;;;0.30;;
36593;SDS011;22603;47.900;8.146;2023-11-19T06:43:04;0.83;;;0.43;;
36593;SDS011;22603;47.900;8.146;2023-11-19T06:45:53;4.60;;;0.47;;
36593;SDS011;22603;47.900;8.146;2023-11-19T06:48:40;0.40;;;0.40;;
36593;SDS011;22603;47.900;8.146;2023-11-19T06:51:28;0.30;;;0.30;;
36593;SDS011;22603;47.900;8.146;2023-11-19T06:54:15;0.20;;;0.20;;
36593;SDS011;22603;47.900;8.146;2023-11-19T06:57:04;1.70;;;0.33;;
36593;SDS011;22603;47.900;8.146;2023-11-19T06:59:51;0.30;;;0.30;;
36593;SDS011;22603;47.900;8.146;2023-11-19T07:02:38;0.30;;;0.30;;
36593;SDS011;22603;47.900;8.146;2023-11-19T07:05:25;0.40;;;0.40;;
36593;SDS011;22603;47.900;8.146;2023-11-19T07:08:13;0.30;;;0.30;;
36593;SDS011;22603;47.900;8.146;2023-11-19T07:11:00;0.30;;;0.30;;
36593;SDS011;22603;47.900;8.146;2023-11-19T07:13:49;1.23;;;0.70;;
36593;SDS011;22603;47.900;8.146;2023-11-19T07:16:36;0.30;;;0.30;;
36593;SDS011;22603;47.900;8.146;2023-11-19T07:19:24;1.53;;;0.70;;
36593;SDS011;22603;47.900;8.146;2023-11-19T07:22:11;0.40;;;0.40;;
36593;SDS011;22603;47.900;8.146;2023-11-19T07:24:57;0.30;;;0.30;;
36593;SDS011;22603;47.900;8.146;2023-11-19T07:27:44;0.30;;;0.30;;
36593;SDS011;22603;47.900;8.146;2023-11-19T07:30:33;1.13;;;0.40;;
36593;SDS011;22603;47.900;8.146;2023-11-19T07:33:20;1.17;;;0.47;;
36593;SDS011;22603;47.900;8.146;2023-11-19T07:36:07;0.30;;;0.30;;
36593;SDS011;22603;47.900;8.146;2023-11-19T07:38:54;0.23;;;0.23;;
36593;SDS011;22603;47.900;8.146;2023-11-19T07:41:42;0.20;;;0.20;;
36593;SDS011;22603;47.900;8.146;2023-11-19T07:44:29;1.03;;;0.40;;
36593;SDS011;22603;47.900;8.146;2023-11-19T07:47:18;0.70;;;0.37;;
36593;SDS011;22603;47.900;8.146;2023-11-19T07:50:09;0.40;;;0.40;;
36593;SDS011;22603;47.900;8.146;2023-11-19T07:52:58;0.20;;;0.20;;
36593;SDS011;22603;47.900;8.146;2023-11-19T07:55:45;0.53;;;0.47;;
36593;SDS011;22603;47.900;8.146;2023-11-19T07:58:32;0.83;;;0.30;;
36593;SDS011;22603;47.900;8.146;2023-11-19T08:01:18;0.40;;;0.40;;
36593;SDS011;22603;47.900;8.146;2023-11-19T08:04:07;0.30;;;0.30;;
36593;SDS011;22603;47.900;8.146;2023-11-19T08:06:54;0.40;;;0.30;;
36593;SDS011;22603;47.900;8.146;2023-11-19T08:09:41;0.37;;;0.37;;
36593;SDS011;22603;47.900;8.146;2023-11-19T08:12:28;0.33;;;0.33;;
36593;SDS011;22603;47.900;8.146;2023-11-19T08:15:15;0.30;;;0.30;;
36593;SDS011;22603;47.900;8.146;2023-11-19T08:18:16;0.50;;;0.37;;
36593;SDS011;22603;47.900;8.146;2023-11-19T08:21:05;0.37;;;0.37;;
36593;SDS011;22603;47.900;8.146;2023-11-19T08:23:51;0.40;;;0.40;;
36593;SDS011;22603;47.900;8.146;2023-11-19T08:26:38;0.38;;;0.38;;
36593;SDS011;22603;47.900;8.146;2023-11-19T08:29:25;0.82;;;0.50;;
36593;SDS011;22603;47.900;8.146;2023-11-19T08:32:12;0.45;;;0.45;;
36593;SDS011;22603;47.900;8.146;2023-11-19T08:34:59;0.43;;;0.38;;
36593;SDS011;22603;47.900;8.146;2023-11-19T08:37:47;0.30;;;0.30;;
36593;SDS011;22603;47.900;8.146;2023-11-19T08:40:34;0.98;;;0.43;;
36593;SDS011;22603;47.900;8.146;2023-11-19T08:43:20;0.55;;;0.50;;
36593;SDS011;22603;47.900;8.146;2023-11-19T08:46:09;0.32;;;0.32;;
36593;SDS011;22603;47.900;8.146;2023-11-19T08:48:57;0.40;;;0.40;;
36593;SDS011;22603;47.900;8.146;2023-11-19T08:51:45;0.30;;;0.30;;
36593;SDS011;22603;47.900;8.146;2023-11-19T08:54:33;0.43;;;0.40;;
36593;SDS011;22603;47.900;8.146;2023-11-19T08:57:20;0.30;;;0.30;;
36593;SDS011;22603;47.900;8.146;2023-11-19T09:00:07;0.73;;;0.40;;
36593;SDS011;22603;47.900;8.146;2023-11-19T09:02:54;0.30;;;0.30;;
36593;SDS011;22603;47.900;8.146;2023-11-19T09:05:41;3.20;;;0.40;;
36593;SDS011;22603;47.900;8.146;2023-11-19T09:08:28;0.60;;;0.60;;
36593;SDS011;22603;47.900;8.146;2023-11-19T09:11:16;0.37;;;0.37;;
36593;SDS011;22603;47.900;8.146;2023-11-19T09:14:03;0.30;;;0.30;;
36593;SDS011;22603;47.900;8.146;2023-11-19T09:16:50;0.43;;;0.43;;
36593;SDS011;22603;47.900;8.146;2023-11-19T09:19:37;0.82;;;0.43;;
36593;SDS011;22603;47.900;8.146;2023-11-19T09:22:23;2.08;;;0.52;;
36593;SDS011;22603;47.900;8.146;2023-11-19T09:25:10;0.43;;;0.40;;
36593;SDS011;22603;47.900;8.146;2023-11-19T09:28:03;0.30;;;0.30;;
36593;SDS011;22603;47.900;8.146;2023-11-19T09:30:49;0.52;;;0.40;;
36593;SDS011;22603;47.900;8.146;2023-11-19T09:33:36;1.35;;;0.45;;
36593;SDS011;22603;47.900;8.146;2023-11-19T09:36:22;1.08;;;0.50;;
36593;SDS011;22603;47.900;8.146;2023-11-19T09:39:09;0.30;;;0.30;;
36593;SDS011;22603;47.900;8.146;2023-11-19T09:41:57;0.30;;;0.30;;
36593;SDS011;22603;47.900;8.146;2023-11-19T09:44:45;0.47;;;0.30;;
36593;SDS011;22603;47.900;8.146;2023-11-19T09:47:34;0.30;;;0.30;;
36593;SDS011;22603;47.900;8.146;2023-11-19T09:50:20;0.35;;;0.35;;
36593;SDS011;22603;47.900;8.146;2023-11-19T09:53:07;0.40;;;0.40;;
36593;SDS011;22603;47.900;8.146;2023-11-19T09:55:55;2.20;;;0.30;;
36593;SDS011;22603;47.900;8.146;2023-11-19T09:58:42;0.30;;;0.30;;
36593;SDS011;22603;47.900;8.146;2023-11-19T10:01:30;0.20;;;0.20;;
36593;SDS011;22603;47.900;8.146;2023-11-19T10:04:18;0.57;;;0.40;;
36593;SDS011;22603;47.900;8.146;2023-11-19T10:07:05;0.43;;;0.40;;
36593;SDS011;22603;47.900;8.146;2023-11-19T10:09:52;0.40;;;0.40;;
36593;SDS011;22603;47.900;8.146;2023-11-19T10:12:39;0.30;;;0.30;;
36593;SDS011;22603;47.900;8.146;2023-11-19T10:15:41;1.27;;;0.80;;
36593;SDS011;22603;47.900;8.146;2023-11-19T10:18:31;0.37;;;0.37;;
36593;SDS011;22603;47.900;8.146;2023-11-19T10:21:24;0.40;;;0.40;;
36593;SDS011;22603;47.900;8.146;2023-11-19T10:24:12;0.97;;;0.30;;
36593;SDS011;22603;47.900;8.146;2023-11-19T10:27:14;0.37;;;0.37;;
36593;SDS011;22603;47.900;8.146;2023-11-19T10:30:01;2.77;;;0.50;;
36593;SDS011;22603;47.900;8.146;2023-11-19T10:32:58;0.30;;;0.30;;
36593;SDS011;22603;47.900;8.146;2023-11-19T10:35:52;0.30;;;0.30;;
36593;SDS011;22603;47.900;8.146;2023-11-19T10:38:51;0.30;;;0.30;;
36593;SDS011;22603;47.900;8.146;2023-11-19T10:41:39;0.37;;;0.37;;
36593;SDS011;22603;47.900;8.146;2023-11-19T10:44:32;0.30;;;0.30;;
36593;SDS011;22603;47.900;8.146;2023-11-19T10:47:22;1.10;;;0.43;;
36593;SDS011;22603;47.900;8.146;2023-11-19T10:50:12;0.93;;;0.57;;
36593;SDS011;22603;47.900;8.146;2023-11-19T10:53:00;0.40;;;0.40;;
36593;SDS011;22603;47.900;8.146;2023-11-19T10:55:48;2.15;;;0.50;;
36593;SDS011;22603;47.900;8.146;2023-11-19T10:58:35;0.47;;;0.47;;
36593;SDS011;22603;47.900;8.146;2023-11-19T11:01:24;2.80;;;0.60;;
36593;SDS011;22603;47.900;8.146;2023-11-19T11:04:19;0.50;;;0.50;;
36593;SDS011;22603;47.900;8.146;2023-11-19T11:07:09;0.70;;;0.30;;
36593;SDS011;22603;47.900;8.146;2023-11-19T11:09:57;0.50;;;0.50;;
36593;SDS011;22603;47.900;8.146;2023-11-19T11:12:45;0.70;;;0.40;;
36593;SDS011;22603;47.900;8.146;2023-11-19T11:15:34;0.40;;;0.40;;
36593;SDS011;22603;47.900;8.146;2023-11-19T11:18:23;0.38;;;0.38;;
36593;SDS011;22603;47.900;8.146;2023-11-19T11:21:12;1.15;;;0.45;;
36593;SDS011;22603;47.900;8.146;2023-11-19T11:24:10;2.42;;;0.55;;
36593;SDS011;22603;47.900;8.146;2023-11-19T11:27:30;0.45;;;0.40;;
36593;SDS011;22603;47.900;8.146;2023-11-19T11:30:34;0.50;;;0.50;;
36593;SDS011;22603;47.900;8.146;2023-11-19T11:33:33;0.30;;;0.30;;
36593;SDS011;22603;47.900;8.146;2023-11-19T11:36:28;0.68;;;0.40;;
36593;SDS011;22603;47.900;8.146;2023-11-19T11:39:17;0.52;;;0.43;;
36593;SDS011;22603;47.900;8.146;2023-11-19T11:45:19;0.65;;;0.43;;
36593;SDS011;22603;47.900;8.146;2023-11-19T11:48:21;0.65;;;0.40;;
36593;SDS011;22603;47.900;8.146;2023-11-19T11:51:11;0.38;;;0.30;;
36593;SDS011;22603;47.900;8.146;2023-11-19T11:53:58;0.47;;;0.43;;
36593;SDS011;22603;47.900;8.146;2023-11-19T11:57:00;0.57;;;0.40;;
36593;SDS011;22603;47.900;8.146;2023-11-19T11:59:52;0.30;;;0.30;;
36593;SDS011;22603;47.900;8.146;2023-11-19T12:02:40;0.82;;;0.50;;
36593;SDS011;22603;47.900;8.146;2023-11-19T12:05:26;0.63;;;0.40;;
36593;SDS011;22603;47.900;8.146;2023-11-19T12:08:14;0.98;;;0.40;;
36593;SDS011;22603;47.900;8.146;2023-11-19T12:11:01;0.40;;;0.40;;
36593;SDS011;22603;47.900;8.146;2023-11-19T12:13:55;0.40;;;0.40;;
36593;SDS011;22603;47.900;8.146;2023-11-19T12:16:45;0.80;;;0.60;;
36593;SDS011;22603;47.900;8.146;2023-11-19T12:19:32;0.30;;;0.30;;
36593;SDS011;22603;47.900;8.146;2023-11-19T12:22:20;0.32;;;0.32;;
36593;SDS011;22603;47.900;8.146;2023-11-19T12:25:07;0.50;;;0.32;;
36593;SDS011;22603;47.900;8.146;2023-11-19T12:27:55;0.47;;;0.47;;
36593;SDS011;22603;47.900;8.146;2023-11-19T12:30:41;0.65;;;0.35;;
36593;SDS011;22603;47.900;8.146;2023-11-19T12:33:30;0.65;;;0.50;;
36593;SDS011;22603;47.900;8.146;2023-11-19T12:36:17;0.30;;;0.30;;
36593;SDS011;22603;47.900;8.146;2023-11-19T12:39:04;0.30;;;0.30;;
36593;SDS011;22603;47.900;8.146;2023-11-19T12:41:54;0.35;;;0.35;;
36593;SDS011;22603;47.900;8.146;2023-11-19T12:44:53;0.30;;;0.30;;
36593;SDS011;22603;47.900;8.146;2023-11-19T12:47:41;0.38;;;0.38;;
36593;SDS011;22603;47.900;8.146;2023-11-19T12:50:30;2.37;;;0.50;;
36593;SDS011;22603;47.900;8.146;2023-11-19T12:53:47;0.30;;;0.30;;
36593;SDS011;22603;47.900;8.146;2023-11-19T12:56:34;0.53;;;0.27;;
36593;SDS011;22603;47.900;8.146;2023-11-19T12:59:23;0.37;;;0.37;;
36593;SDS011;22603;47.900;8.146;2023-11-19T13:02:10;0.50;;;0.40;;
36593;SDS011;22603;47.900;8.146;2023-11-19T13:04:56;0.43;;;0.27;;
36593;SDS011;22603;47.900;8.146;2023-11-19T13:07:44;2.65;;;0.40;;
36593;SDS011;22603;47.900;8.146;2023-11-19T13:10:31;0.30;;;0.30;;
36593;SDS011;22603;47.900;8.146;2023-11-19T13:13:19;0.20;;;0.20;;
36593;SDS011;22603;47.900;8.146;2023-11-19T13:16:06;0.30;;;0.30;;
36593;SDS011;22603;47.900;8.146;2023-11-19T13:18:54;0.52;;;0.52;;
36593;SDS011;22603;47.900;8.146;2023-11-19T13:21:42;0.70;;;0.50;;
36593;SDS011;22603;47.900;8.146;2023-11-19T13:24:33;0.50;;;0.40;;
36593;SDS011;22603;47.900;8.146;2023-11-19T13:27:20;0.52;;;0.40;;
36593;SDS011;22603;47.900;8.146;2023-11-19T13:30:07;0.40;;;0.40;;
36593;SDS011;22603;47.900;8.146;2023-11-19T13:33:11;1.07;;;0.60;;
36593;SDS011;22603;47.900;8.146;2023-11-19T13:35:58;0.30;;;0.30;;
36593;SDS011;22603;47.900;8.146;2023-11-19T13:38:50;0.77;;;0.50;;
36593;SDS011;22603;47.900;8.146;2023-11-19T13:41:44;1.47;;;0.53;;
36593;SDS011;22603;47.900;8.146;2023-11-19T13:44:31;15.07;;;0.97;;
36593;SDS011;22603;47.900;8.146;2023-11-19T13:47:18;1.67;;;0.50;;
36593;SDS011;22603;47.900;8.146;2023-11-19T13:50:05;0.40;;;0.40;;
36593;SDS011;22603;47.900;8.146;2023-11-19T13:52:52;0.53;;;0.37;;
36593;SDS011;22603;47.900;8.146;2023-11-19T13:55:39;1.23;;;0.60;;
36593;SDS011;22603;47.900;8.146;2023-11-19T13:58:27;0.40;;;0.40;;
36593;SDS011;22603;47.900;8.146;2023-11-19T14:01:14;0.40;;;0.40;;
36593;SDS011;22603;47.900;8.146;2023-11-19T14:04:01;1.30;;;0.67;;
36593;SDS011;22603;47.900;8.146;2023-11-19T14:06:48;0.40;;;0.40;;
36593;SDS011;22603;47.900;8.146;2023-11-19T14:09:34;0.90;;;0.63;;
36593;SDS011;22603;47.900;8.146;2023-11-19T14:12:21;2.40;;;0.60;;
36593;SDS011;22603;47.900;8.146;2023-11-19T14:15:10;0.87;;;0.50;;
36593;SDS011;22603;47.900;8.146;2023-11-19T14:17:58;2.90;;;0.87;;
36593;SDS011;22603;47.900;8.146;2023-11-19T14:20:45;0.97;;;0.40;;
36593;SDS011;22603;47.900;8.146;2023-11-19T14:23:32;2.30;;;0.60;;
36593;SDS011;22603;47.900;8.146;2023-11-19T14:26:19;0.33;;;0.33;;
36593;SDS011;22603;47.900;8.146;2023-11-19T14:29:05;0.83;;;0.50;;
36593;SDS011;22603;47.900;8.146;2023-11-19T14:31:53;0.40;;;0.40;;
36593;SDS011;22603;47.900;8.146;2023-11-19T14:34:40;0.83;;;0.60;;
36593;SDS011;22603;47.900;8.146;2023-11-19T14:37:28;1.73;;;0.53;;
36593;SDS011;22603;47.900;8.146;2023-11-19T14:40:15;1.00;;;0.70;;
36593;SDS011;22603;47.900;8.146;2023-11-19T14:43:02;0.90;;;0.50;;
36593;SDS011;22603;47.900;8.146;2023-11-19T14:45:49;0.60;;;0.60;;
36593;SDS011;22603;47.900;8.146;2023-11-19T14:48:38;2.37;;;0.70;;
36593;SDS011;22603;47.900;8.146;2023-11-19T14:51:24;2.83;;;0.70;;
36593;SDS011;22603;47.900;8.146;2023-11-19T14:54:12;4.70;;;0.90;;
36593;SDS011;22603;47.900;8.146;2023-11-19T14:56:59;3.30;;;0.80;;
36593;SDS011;22603;47.900;8.146;2023-11-19T14:59:46;3.57;;;0.70;;
36593;SDS011;22603;47.900;8.146;2023-11-19T15:02:33;0.90;;;0.80;;
36593;SDS011;22603;47.900;8.146;2023-11-19T15:05:21;1.43;;;0.60;;
36593;SDS011;22603;47.900;8.146;2023-11-19T15:08:08;1.40;;;0.60;;
36593;SDS011;22603;47.900;8.146;2023-11-19T15:10:54;1.30;;;0.67;;
36593;SDS011;22603;47.900;8.146;2023-11-19T15:13:45;0.97;;;0.67;;
36593;SDS011;22603;47.900;8.146;2023-11-19T15:16:31;1.03;;;0.60;;
36593;SDS011;22603;47.900;8.146;2023-11-19T15:19:19;1.83;;;0.70;;
36593;SDS011;22603;47.900;8.146;2023-11-19T15:22:08;3.58;;;1.05;;
36593;SDS011;22603;47.900;8.146;2023-11-19T15:24:56;2.43;;;0.90;;
36593;SDS011;22603;47.900;8.146;2023-11-19T15:27:43;0.70;;;0.50;;
36593;SDS011;22603;47.900;8.146;2023-11-19T15:30:30;1.73;;;0.80;;
36593;SDS011;22603;47.900;8.146;2023-11-19T15:33:16;1.70;;;0.70;;
36593;SDS011;22603;47.900;8.146;2023-11-19T15:36:04;3.07;;;0.80;;
36593;SDS011;22603;47.900;8.146;2023-11-19T15:38:54;3.60;;;0.90;;
36593;SDS011;22603;47.900;8.146;2023-11-19T15:41:40;1.53;;;0.80;;
36593;SDS011;22603;47.900;8.146;2023-11-19T15:44:27;0.93;;;0.60;;
36593;SDS011;22603;47.900;8.146;2023-11-19T15:47:14;0.97;;;0.60;;
36593;SDS011;22603;47.900;8.146;2023-11-19T15:50:01;1.60;;;0.57;;
36593;SDS011;22603;47.900;8.146;2023-11-19T15:52:49;1.40;;;0.60;;
36593;SDS011;22603;47.900;8.146;2023-11-19T15:55:37;1.63;;;0.60;;
36593;SDS011;22603;47.900;8.146;2023-11-19T15:58:24;2.20;;;0.60;;
36593;SDS011;22603;47.900;8.146;2023-11-19T16:01:11;2.77;;;0.80;;
36593;SDS011;22603;47.900;8.146;2023-11-19T16:03:58;1.17;;;0.87;;
36593;SDS011;22603;47.900;8.146;2023-11-19T16:06:45;0.50;;;0.50;;
36593;SDS011;22603;47.900;8.146;2023-11-19T16:09:32;1.53;;;1.00;;
36593;SDS011;22603;47.900;8.146;2023-11-19T16:12:20;2.30;;;0.80;;
36593;SDS011;22603;47.900;8.146;2023-11-19T16:15:07;1.97;;;0.60;;
36593;SDS011;22603;47.900;8.146;2023-11-19T16:17:55;0.70;;;0.70;;
36593;SDS011;22603;47.900;8.146;2023-11-19T16:20:42;1.37;;;0.63;;
36593;SDS011;22603;47.900;8.146;2023-11-19T16:23:29;1.27;;;0.63;;
36593;SDS011;22603;47.900;8.146;2023-11-19T16:26:17;0.83;;;0.70;;
36593;SDS011;22603;47.900;8.146;2023-11-19T16:29:05;1.23;;;0.57;;
36593;SDS011;22603;47.900;8.146;2023-11-19T16:31:52;1.57;;;0.70;;
36593;SDS011;22603;47.900;8.146;2023-11-19T16:34:39;1.80;;;0.83;;
36593;SDS011;22603;47.900;8.146;2023-11-19T16:37:27;2.00;;;0.90;;
36593;SDS011;22603;47.900;8.146;2023-11-19T16:40:14;1.80;;;0.70;;
36593;SDS011;22603;47.900;8.146;2023-11-19T16:43:02;3.10;;;0.90;;
36593;SDS011;22603;47.900;8.146;2023-11-19T16:45:50;1.43;;;0.63;;
36593;SDS011;22603;47.900;8.146;2023-11-19T16:48:37;0.70;;;0.67;;
36593;SDS011;22603;47.900;8.146;2023-11-19T16:51:23;3.93;;;0.60;;
36593;SDS011;22603;47.900;8.146;2023-11-19T16:54:10;0.50;;;0.50;;
36593;SDS011;22603;47.900;8.146;2023-11-19T16:56:57;0.80;;;0.70;;